Time;durP1;ratioP1;P1;durP2;ratioP2;P2;SDS_P1;SDS_P2;PMS_P1;PMS_P2;Temp;Humidity;BMP_temperature;BMP_pressure;BME280_temperature;BME280_humidity;BME280_pressure;Samples;Min_cycle;Max_cycle;Signal;HPM_P1;HPM_P2
2021/08/22 00:00:30;;;;;;;6.68;5.93;;;19.50;99.90;;;;;;5053992;28;20041;-67
2021/08/22 00:02:55;;;;;;;9.00;6.03;;;19.50;99.90;;;;;;5054494;28;20067;-67
2021/08/22 00:05:21;;;;;;;6.55;5.90;;;19.50;99.90;;;;;;5053741;28;20049;-66
2021/08/22 00:07:47;;;;;;;9.05;7.05;;;19.60;99.90;;;;;;5053653;28;20434;-67
2021/08/22 00:10:13;;;;;;;8.85;6.57;;;19.60;99.90;;;;;;5052817;28;20044;-66
2021/08/22 00:12:40;;;;;;;9.73;6.90;;;19.70;99.90;;;;;;5053831;28;20100;-67
2021/08/22 00:15:07;;;;;;;7.57;6.50;;;19.80;99.90;;;;;;5052959;28;20462;-66
2021/08/22 00:17:33;;;;;;;6.45;5.85;;;19.90;99.90;;;;;;5053484;28;20017;-67
2021/08/22 00:19:59;;;;;;;10.38;6.85;;;20.00;99.90;;;;;;5052890;28;20397;-66
2021/08/22 00:22:24;;;;;;;9.10;6.50;;;20.00;99.90;;;;;;5053008;28;20025;-66
2021/08/22 00:24:50;;;;;;;10.98;6.88;;;;;;;;;;5051468;28;20032;-67
2021/08/22 00:27:17;;;;;;;13.98;7.43;;;;;;;;;;5051534;28;20028;-66
2021/08/22 00:29:43;;;;;;;8.85;6.40;;;;;;;;;;5051885;28;20048;-67
2021/08/22 00:32:09;;;;;;;10.07;5.07;;;;;;;;;;5051682;28;20028;-68
2021/08/22 00:34:35;;;;;;;6.47;4.15;;;;;;;;;;5053249;28;20540;-69
2021/08/22 00:37:01;;;;;;;6.20;3.95;;;;;;;;;;5052760;28;20029;-71
2021/08/22 00:39:28;;;;;;;6.68;3.90;;;;;;;;;;5052713;28;20047;-67
2021/08/22 00:41:54;;;;;;;7.07;4.35;;;;;;;;;;5052754;28;20107;-68
2021/08/22 00:44:20;;;;;;;6.53;4.05;;;;;;;;;;5052483;28;20108;-68
2021/08/22 00:46:47;;;;;;;7.75;4.38;;;;;;;;;;5052723;28;20431;-68
2021/08/22 00:49:13;;;;;;;8.70;4.75;;;;;;;;;;5052364;28;20020;-67
2021/08/22 00:51:40;;;;;;;7.15;4.97;;;;;;;;;;5053011;28;20029;-67
2021/08/22 00:54:07;;;;;;;7.47;4.47;;;;;;;;;;5052134;28;20063;-68
2021/08/22 00:56:33;;;;;;;6.85;4.50;;;;;;;;;;5053167;28;20047;-67
2021/08/22 00:59:04;;;;;;;9.68;5.25;;;;;;;;;;5051979;28;20021;-67
2021/08/22 01:01:31;;;;;;;7.38;4.15;;;;;;;;;;5052600;28;20123;-67
2021/08/22 01:04:06;;;;;;;7.80;4.28;;;;;;;;;;5052547;28;20021;-67
2021/08/22 01:06:47;;;;;;;5.45;4.10;;;;;;;;;;5052913;28;20052;-68
2021/08/22 01:09:32;;;;;;;8.57;4.53;;;;;;;;;;5051494;28;20051;-68
2021/08/22 01:12:06;;;;;;;7.15;4.45;;;;;;;;;;5052361;28;20040;-68
2021/08/22 01:14:35;;;;;;;7.07;4.28;;;;;;;;;;5052256;28;20094;-68
2021/08/22 01:17:02;;;;;;;7.38;4.85;;;;;;;;;;5051758;28;20021;-68
2021/08/22 01:19:34;;;;;;;6.05;4.72;;;;;;;;;;5052337;28;20064;-68
2021/08/22 01:22:01;;;;;;;6.32;5.00;;;;;;;;;;5052413;28;20044;-69
2021/08/22 01:24:28;;;;;;;4.63;4.07;;;;;;;;;;5052147;28;20474;-70
2021/08/22 01:26:55;;;;;;;7.25;4.93;;;;;;;;;;5052451;28;20082;-70
2021/08/22 01:29:22;;;;;;;7.00;4.65;;;;;;;;;;5051414;28;20478;-70
2021/08/22 01:31:50;;;;;;;6.00;4.80;;;;;;;;;;5052336;28;20044;-70
2021/08/22 01:34:16;;;;;;;6.80;4.80;;;;;;;;;;5051429;28;20036;-70
2021/08/22 01:36:43;;;;;;;6.43;5.00;;;;;;;;;;5052090;28;20032;-70
2021/08/22 01:39:09;;;;;;;7.60;5.18;;;;;;;;;;5051548;28;20044;-70
2021/08/22 01:41:36;;;;;;;6.05;5.35;;;;;;;;;;5052465;28;20146;-70
2021/08/22 01:44:03;;;;;;;5.78;5.13;;;;;;;;;;5051703;28;20048;-70
2021/08/22 01:46:33;;;;;;;7.15;5.45;;;;;;;;;;5052202;28;20025;-68
2021/08/22 01:48:59;;;;;;;8.13;5.63;;;;;;;;;;5052038;28;20058;-68
2021/08/22 01:51:28;;;;;;;7.55;6.40;;;;;;;;;;5051611;28;20082;-70
2021/08/22 01:53:59;;;;;;;8.43;5.00;;;;;;;;;;5051879;28;20433;-70
2021/08/22 01:56:27;;;;;;;6.25;4.88;;;;;;;;;;5051551;28;20075;-70
2021/08/22 01:58:53;;;;;;;9.77;5.90;;;;;;;;;;5052121;28;20021;-70
2021/08/22 02:01:19;;;;;;;8.82;5.75;;;;;;;;;;5051065;28;20429;-70
2021/08/22 02:03:48;;;;;;;7.10;5.25;;;;;;;;;;5051988;28;20083;-69
2021/08/22 02:06:24;;;;;;;6.88;5.43;;;;;;;;;;5051392;28;20029;-69
2021/08/22 02:08:54;;;;;;;6.25;4.88;;;;;;;;;;5052064;28;20478;-67
2021/08/22 02:11:22;;;;;;;15.27;5.85;;;;;;;;;;5051466;28;20041;-67
2021/08/22 02:13:49;;;;;;;9.50;5.53;;;;;;;;;;5052080;28;20029;-69
2021/08/22 02:16:19;;;;;;;6.68;4.85;;;;;;;;;;5051039;28;20478;-69
2021/08/22 02:18:46;;;;;;;6.22;4.88;;;;;;;;;;5051509;28;20029;-68
2021/08/22 02:21:12;;;;;;;6.50;4.50;;;;;;;;;;5051212;28;20075;-67
2021/08/22 02:23:38;;;;;;;8.35;4.47;;;;;;;;;;5051968;28;20048;-67
2021/08/22 02:26:04;;;;;;;16.60;4.28;;;;;;;;;;5051141;28;20025;-67
2021/08/22 02:28:31;;;;;;;5.00;4.22;;;;;;;;;;5050687;28;20039;-67
2021/08/22 02:30:57;;;;;;;5.95;4.60;;;;;;;;;;5051570;28;20028;-67
2021/08/22 02:33:24;;;;;;;7.35;4.70;;;16.30;99.90;;;;;;5050792;28;20055;-68
2021/08/22 02:35:50;;;;;;;7.72;4.43;;;16.20;99.90;;;;;;5051653;28;20542;-67
2021/08/22 02:38:16;;;;;;;6.72;4.28;;;16.20;99.90;;;;;;5050845;28;20092;-68
2021/08/22 02:40:41;;;;;;;8.18;4.40;;;16.10;99.90;;;;;;5051452;28;20051;-68
2021/08/22 02:43:07;;;;;;;5.07;4.10;;;16.10;99.90;;;;;;5051043;28;20090;-67
2021/08/22 02:45:33;;;;;;;4.50;4.10;;;16.10;99.90;;;;;;5051510;28;20033;-68
2021/08/22 02:47:59;;;;;;;6.00;4.30;;;16.10;99.90;;;;;;5052644;28;20027;-67
2021/08/22 02:50:28;;;;;;;5.07;4.05;;;16.10;99.90;;;;;;5054552;28;20025;-68
2021/08/22 02:52:54;;;;;;;5.35;4.20;;;16.10;99.90;;;;;;5055205;28;20107;-68
2021/08/22 02:55:19;;;;;;;5.13;3.88;;;16.10;99.90;;;;;;5054534;28;20029;-69
2021/08/22 02:57:45;;;;;;;4.43;3.97;;;16.20;99.90;;;;;;5055166;28;20025;-68
2021/08/22 03:00:11;;;;;;;5.88;3.67;;;16.20;99.90;;;;;;5054241;28;20037;-67
2021/08/22 03:02:37;;;;;;;8.55;3.92;;;16.10;99.90;;;;;;5054804;28;20056;-68
2021/08/22 03:05:03;;;;;;;7.53;3.70;;;16.20;99.90;;;;;;5054685;28;20071;-68
2021/08/22 03:07:29;;;;;;;5.60;4.00;;;16.10;99.90;;;;;;5055009;28;20036;-67
2021/08/22 03:09:54;;;;;;;5.75;3.50;;;16.10;99.90;;;;;;5054567;28;20041;-68
2021/08/22 03:12:20;;;;;;;5.45;4.15;;;16.10;99.90;;;;;;5054104;28;20605;-67
2021/08/22 03:14:46;;;;;;;5.45;3.80;;;16.10;99.90;;;;;;5054780;28;20060;-67
2021/08/22 03:17:11;;;;;;;4.22;3.83;;;16.10;99.90;;;;;;5054057;28;20025;-67
2021/08/22 03:19:37;;;;;;;8.18;4.50;;;16.10;99.90;;;;;;5054665;28;20044;-69
2021/08/22 03:22:03;;;;;;;6.72;4.53;;;16.10;99.90;;;;;;5054603;28;20041;-68
2021/08/22 03:24:29;;;;;;;6.45;4.03;;;16.10;99.90;;;;;;5054597;28;20064;-68
2021/08/22 03:26:55;;;;;;;5.55;4.32;;;16.10;99.90;;;;;;5054604;28;20021;-67
2021/08/22 03:29:20;;;;;;;7.47;4.63;;;16.10;99.90;;;;;;5053665;28;20032;-68
2021/08/22 03:31:46;;;;;;;8.30;4.30;;;16.20;99.90;;;;;;5054162;28;20442;-68
2021/08/22 03:34:11;;;;;;;8.38;4.22;;;16.20;99.90;;;;;;5053691;28;20025;-68
2021/08/22 03:36:37;;;;;;;6.45;4.80;;;16.20;99.90;;;;;;5054349;28;20021;-68
2021/08/22 03:39:04;;;;;;;6.82;4.75;;;16.20;99.90;;;;;;5054110;28;20024;-68
2021/08/22 03:41:32;;;;;;;8.45;5.03;;;16.20;99.90;;;;;;5053664;28;20060;-69
2021/08/22 03:43:58;;;;;;;7.68;5.03;;;16.20;99.90;;;;;;5054341;28;20108;-68
2021/08/22 03:46:24;;;;;;;6.72;4.85;;;16.20;99.90;;;;;;5053595;28;20112;-68
2021/08/22 03:48:50;;;;;;;5.65;4.57;;;16.20;99.90;;;;;;5054192;28;20100;-69
2021/08/22 03:51:15;;;;;;;6.25;4.57;;;16.20;99.90;;;;;;5053280;28;20055;-69
2021/08/22 03:53:41;;;;;;;7.18;5.22;;;16.20;99.90;;;;;;5054482;28;20029;-69
2021/08/22 03:56:06;;;;;;;6.68;5.18;;;16.30;99.90;;;;;;5053449;28;20029;-69
2021/08/22 03:58:32;;;;;;;5.22;4.15;;;16.20;99.90;;;;;;5053979;28;20034;-69
2021/08/22 04:01:00;;;;;;;5.35;4.65;;;16.30;99.90;;;;;;5053476;28;20037;-69
2021/08/22 04:03:27;;;;;;;7.53;5.30;;;16.30;99.90;;;;;;5053245;28;20025;-69
2021/08/22 04:05:52;;;;;;;7.35;5.05;;;16.30;99.90;;;;;;5053901;28;20032;-68
2021/08/22 04:08:23;;;;;;;6.20;4.97;;;16.30;99.90;;;;;;5053174;28;20382;-68
2021/08/22 04:10:49;;;;;;;5.70;4.68;;;16.40;99.90;;;;;;5053858;28;20063;-68
2021/08/22 04:13:15;;;;;;;10.80;5.28;;;16.40;99.90;;;;;;5053089;28;20104;-68
2021/08/22 04:15:43;;;;;;;10.60;5.70;;;16.40;99.90;;;;;;5053742;28;20029;-68
2021/08/22 04:18:09;;;;;;;6.13;4.65;;;16.40;99.90;;;;;;5052932;28;20116;-68
2021/08/22 04:20:34;;;;;;;5.65;4.95;;;16.40;99.90;;;;;;5053375;28;20120;-67
2021/08/22 04:23:01;;;;;;;6.10;4.82;;;16.40;99.90;;;;;;5053443;28;20043;-68
2021/08/22 04:25:26;;;;;;;8.82;5.25;;;16.40;99.90;;;;;;5052901;28;20554;-68
2021/08/22 04:27:52;;;;;;;6.13;4.70;;;16.40;99.90;;;;;;5053380;28;20113;-68
2021/08/22 04:30:18;;;;;;;6.53;5.10;;;16.40;99.90;;;;;;5053064;28;20057;-67
2021/08/22 04:32:43;;;;;;;6.53;5.00;;;16.40;99.90;;;;;;5053348;28;20033;-68
2021/08/22 04:35:09;;;;;;;8.23;5.65;;;16.50;99.90;;;;;;5052663;28;20079;-68
2021/08/22 04:37:35;;;;;;;6.07;4.35;;;16.50;99.90;;;;;;5053003;28;20021;-68
2021/08/22 04:40:01;;;;;;;7.95;5.30;;;16.50;99.90;;;;;;5052641;28;20088;-68
2021/08/22 04:42:27;;;;;;;9.00;5.93;;;16.40;99.90;;;;;;5052406;28;20072;-67
2021/08/22 04:44:52;;;;;;;6.38;5.07;;;16.40;99.90;;;;;;5053087;28;20036;-67
2021/08/22 04:47:18;;;;;;;7.60;5.22;;;16.50;99.90;;;;;;5052361;28;20025;-67
2021/08/22 04:49:44;;;;;;;5.82;5.15;;;16.50;99.90;;;;;;5053291;28;20028;-68
2021/08/22 04:52:09;;;;;;;5.88;5.28;;;16.60;99.90;;;;;;5052240;28;20025;-68
2021/08/22 04:54:35;;;;;;;6.53;5.50;;;16.60;99.90;;;;;;5052934;28;20033;-68
2021/08/22 04:57:00;;;;;;;7.15;5.10;;;16.60;99.90;;;;;;5052909;28;20413;-68
2021/08/22 04:59:26;;;;;;;7.75;5.20;;;16.70;99.90;;;;;;5052259;28;20025;-69
2021/08/22 05:01:52;;;;;;;8.63;5.07;;;16.80;99.90;;;;;;5052567;28;20067;-68
2021/08/22 05:04:17;;;;;;;7.45;4.90;;;16.80;99.90;;;;;;5052156;28;20025;-68
2021/08/22 05:06:43;;;;;;;7.53;4.90;;;16.80;99.90;;;;;;5052702;28;20101;-68
2021/08/22 05:09:08;;;;;;;7.60;4.80;;;16.80;99.90;;;;;;5051954;28;20459;-68
2021/08/22 05:11:34;;;;;;;9.38;4.88;;;16.80;99.90;;;;;;5052462;28;20064;-69
2021/08/22 05:14:00;;;;;;;5.45;4.70;;;16.90;99.90;;;;;;5052262;28;20040;-68
2021/08/22 05:16:26;;;;;;;6.45;4.47;;;16.90;99.90;;;;;;5051793;28;20059;-68
2021/08/22 05:18:52;;;;;;;6.30;4.78;;;16.90;99.90;;;;;;5052486;28;20049;-68
2021/08/22 05:21:17;;;;;;;5.55;4.57;;;16.90;99.90;;;;;;5051105;28;20111;-69
2021/08/22 05:23:43;;;;;;;6.70;4.80;;;17.00;99.90;;;;;;5051488;28;20425;-69
2021/08/22 05:26:09;;;;;;;5.10;4.13;;;17.00;99.90;;;;;;5051570;28;20025;-69
2021/08/22 05:28:34;;;;;;;7.70;4.70;;;17.00;99.90;;;;;;5052502;28;20079;-68
2021/08/22 05:31:01;;;;;;;5.80;4.25;;;17.10;99.90;;;;;;5051373;28;20057;-68
2021/08/22 05:33:27;;;;;;;6.80;4.25;;;17.10;99.90;;;;;;5050744;28;20028;-68
2021/08/22 05:35:52;;;;;;;6.68;4.68;;;17.10;99.90;;;;;;5051821;28;20378;-68
2021/08/22 05:38:18;;;;;;;5.00;4.50;;;17.10;99.90;;;;;;5050686;28;20059;-68
2021/08/22 05:40:44;;;;;;;5.60;4.40;;;17.10;99.90;;;;;;5052077;28;20096;-68
2021/08/22 05:43:09;;;;;;;6.07;4.50;;;17.20;99.90;;;;;;5050912;28;20107;-68
2021/08/22 05:45:35;;;;;;;6.35;4.22;;;17.20;99.90;;;;;;5050409;28;20067;-68
2021/08/22 05:48:00;;;;;;;5.38;4.47;;;17.20;99.90;;;;;;5050105;28;20538;-67
2021/08/22 05:50:26;;;;;;;10.35;4.47;;;17.30;99.90;;;;;;5051199;28;20121;-69
2021/08/22 05:52:52;;;;;;;6.30;4.15;;;17.40;99.90;;;;;;5050862;28;20025;-69
2021/08/22 05:55:18;;;;;;;5.47;3.97;;;17.40;99.90;;;;;;5050509;28;20096;-69
2021/08/22 05:57:43;;;;;;;5.35;4.35;;;17.50;99.90;;;;;;5050841;28;20033;-72
2021/08/22 06:00:10;;;;;;;5.45;4.50;;;17.60;99.90;;;;;;5050905;28;20037;-72
2021/08/22 06:02:36;;;;;;;5.38;4.78;;;17.70;99.90;;;;;;5049669;28;20166;-72
2021/08/22 06:05:04;;;;;;;4.90;3.95;;;17.80;99.90;;;;;;5050832;28;20386;-72
2021/08/22 06:07:29;;;;;;;5.38;4.40;;;17.90;99.90;;;;;;5047788;28;20029;-72
2021/08/22 06:09:57;;;;;;;12.77;4.65;;;18.00;99.90;;;;;;5051384;28;20379;-72
2021/08/22 06:12:22;;;;;;;4.68;4.10;;;18.20;99.90;;;;;;5050900;28;20104;-72
2021/08/22 06:14:48;;;;;;;4.90;3.97;;;18.30;99.90;;;;;;5051516;28;21181;-72
2021/08/22 06:17:14;;;;;;;5.20;4.15;;;18.40;99.90;;;;;;5048200;28;20052;-72
2021/08/22 06:19:39;;;;;;;10.82;4.25;;;18.50;99.90;;;;;;5051399;28;20029;-72
2021/08/22 06:22:05;;;;;;;7.45;4.15;;;18.50;99.90;;;;;;5051357;28;20490;-72
2021/08/22 06:24:32;;;;;;;4.70;4.18;;;18.60;99.90;;;;;;5054833;28;20121;-74
2021/08/22 06:26:58;;;;;;;4.53;4.13;;;18.60;99.90;;;;;;5055710;28;20032;-75
2021/08/22 06:29:24;;;;;;;12.68;4.50;;;18.60;99.90;;;;;;5055086;28;20377;-75
2021/08/22 06:31:50;;;;;;;5.20;4.20;;;18.70;99.90;;;;;;5055118;28;20112;-75
2021/08/22 06:34:16;;;;;;;6.32;4.45;;;18.80;99.90;;;;;;5054433;28;20029;-75
2021/08/22 06:36:42;;;;;;;6.57;4.75;;;18.90;99.90;;;;;;5055099;28;20378;-72
2021/08/22 06:39:09;;;;;;;8.60;4.45;;;19.00;99.90;;;;;;5054781;28;20013;-73
2021/08/22 06:41:34;;;;;;;5.38;4.88;;;19.10;99.90;;;;;;5053819;28;20115;-72
2021/08/22 06:44:00;;;;;;;5.60;4.43;;;19.20;99.90;;;;;;5055174;28;20025;-73
2021/08/22 06:46:26;;;;;;;7.47;4.53;;;19.20;99.90;;;;;;5054392;28;20056;-72
2021/08/22 06:48:52;;;;;;;4.93;4.15;;;19.20;99.90;;;;;;5054689;28;20021;-74
2021/08/22 06:51:17;;;;;;;4.90;4.45;;;19.20;99.90;;;;;;5054523;28;20063;-73
2021/08/22 06:53:43;;;;;;;5.75;4.47;;;19.20;99.90;;;;;;5054414;28;20036;-70
2021/08/22 06:56:09;;;;;;;5.45;4.88;;;19.30;99.90;;;;;;5054628;28;20472;-72
2021/08/22 06:58:34;;;;;;;5.35;4.22;;;19.30;99.90;;;;;;5053606;28;20060;-71
2021/08/22 07:01:01;;;;;;;5.57;4.47;;;19.30;99.90;;;;;;5054908;28;20033;-72
2021/08/22 07:03:26;;;;;;;6.22;5.07;;;19.40;99.90;;;;;;5054194;28;20101;-72
2021/08/22 07:05:52;;;;;;;6.07;4.47;;;19.40;99.90;;;;;;5054188;28;20053;-71
2021/08/22 07:08:18;;;;;;;4.28;3.83;;;19.40;99.90;;;;;;5054242;28;20095;-71
2021/08/22 07:10:43;;;;;;;4.93;4.05;;;19.50;99.90;;;;;;5053787;28;20052;-70
2021/08/22 07:13:09;;;;;;;4.40;3.65;;;19.50;99.90;;;;;;5051759;28;20063;-71
2021/08/22 07:15:35;;;;;;;5.40;4.75;;;19.50;99.90;;;;;;5053774;28;20024;-72
2021/08/22 07:18:01;;;;;;;6.00;4.00;;;19.50;99.90;;;;;;5054342;28;20419;-72
2021/08/22 07:20:27;;;;;;;4.25;3.85;;;19.60;99.90;;;;;;5053583;28;20120;-71
2021/08/22 07:22:52;;;;;;;6.70;4.32;;;19.60;99.90;;;;;;5054215;28;20092;-73
2021/08/22 07:25:20;;;;;;;6.53;4.38;;;19.70;99.90;;;;;;5053429;28;20100;-74
2021/08/22 07:27:46;;;;;;;5.88;4.15;;;19.80;99.90;;;;;;5054527;28;20028;-74
2021/08/22 07:30:12;;;;;;;4.63;3.95;;;19.90;99.90;;;;;;5054469;28;20111;-74
2021/08/22 07:32:38;;;;;;;5.50;4.47;;;19.90;99.90;;;;;;5056377;28;20029;-75
2021/08/22 07:35:05;;;;;;;6.18;4.72;;;20.10;99.90;;;;;;5054406;28;20032;-75
2021/08/22 07:37:30;;;;;;;4.70;4.22;;;20.10;99.90;;;;;;5053505;28;20074;-75
2021/08/22 07:39:56;;;;;;;4.68;4.18;;;20.20;99.90;;;;;;5053421;28;20053;-75
2021/08/22 07:42:21;;;;;;;4.72;4.22;;;20.20;99.90;;;;;;5054241;28;20033;-71
2021/08/22 07:44:47;;;;;;;8.32;4.00;;;20.30;99.90;;;;;;5054572;28;20033;-75
2021/08/22 07:47:13;;;;;;;4.97;4.28;;;20.40;99.90;;;;;;5054235;28;20466;-72
2021/08/22 07:49:38;;;;;;;7.30;4.18;;;20.50;99.90;;;;;;5053442;28;20032;-72
2021/08/22 07:52:04;;;;;;;5.60;4.25;;;20.60;99.90;;;;;;5054169;28;20090;-72
2021/08/22 07:54:30;;;;;;;4.30;3.90;;;20.70;99.90;;;;;;5053210;28;20032;-72
2021/08/22 07:56:55;;;;;;;6.70;3.83;;;20.80;99.90;;;;;;5053834;28;20021;-72
2021/08/22 07:59:21;;;;;;;4.30;3.90;;;20.90;99.90;;;;;;5053567;28;20466;-72
2021/08/22 08:01:47;;;;;;;6.78;4.50;;;20.90;99.90;;;;;;5053749;28;20029;-72
2021/08/22 08:04:12;;;;;;;4.40;4.00;;;21.00;99.90;;;;;;5053863;28;20485;-72
2021/08/22 08:06:38;;;;;;;4.82;3.95;;;21.00;99.90;;;;;;5053134;28;20029;-72
2021/08/22 08:09:04;;;;;;;5.72;3.97;;;21.10;99.90;;;;;;5053604;28;20025;-72
2021/08/22 08:11:30;;;;;;;4.95;4.05;;;21.20;99.90;;;;;;5052981;28;20048;-70
2021/08/22 08:13:56;;;;;;;3.90;3.45;;;21.30;99.90;;;;;;5054060;28;20029;-72
2021/08/22 08:16:21;;;;;;;6.90;3.97;;;21.40;99.90;;;;;;5052745;28;20025;-72
2021/08/22 08:18:47;;;;;;;4.30;3.90;;;21.40;99.90;;;;;;5053285;28;20025;-71
2021/08/22 08:21:13;;;;;;;5.68;4.57;;;21.50;99.90;;;;;;5053263;28;20043;-70
2021/08/22 08:23:39;;;;;;;4.75;3.53;;;21.60;99.90;;;;;;5052507;28;20040;-70
2021/08/22 08:26:04;;;;;;;5.10;3.92;;;21.70;99.90;;;;;;5053108;28;20028;-71
2021/08/22 08:28:31;;;;;;;6.07;4.20;;;21.80;99.90;;;;;;5052621;28;20421;-70
2021/08/22 08:30:57;;;;;;;4.47;4.07;;;21.90;99.90;;;;;;5052706;28;20363;-72
2021/08/22 08:33:22;;;;;;;4.70;4.20;;;22.00;99.90;;;;;;5052565;28;20040;-70
2021/08/22 08:35:48;;;;;;;4.85;4.18;;;22.10;99.90;;;;;;5053036;28;20027;-71
2021/08/22 08:38:14;;;;;;;5.32;4.72;;;22.20;99.90;;;;;;5053157;28;20040;-71
2021/08/22 08:40:41;;;;;;;4.53;4.00;;;22.30;99.90;;;;;;5051567;28;20471;-70
2021/08/22 08:43:07;;;;;;;7.68;4.30;;;22.50;99.90;;;;;;5052634;28;20028;-71
2021/08/22 08:46:09;;;;;;;4.55;4.03;;;22.60;99.90;;;;;;5051466;28;20025;-71
2021/08/22 08:48:59;;;;;;;5.88;4.20;;;22.70;99.90;;;;;;5052254;28;20458;-70
2021/08/22 08:51:43;;;;;;;4.70;4.13;;;22.80;99.90;;;;;;5052230;28;20044;-71
2021/08/22 08:54:20;;;;;;;5.90;4.38;;;22.80;99.90;;;;;;5052801;28;20114;-71
2021/08/22 08:56:47;;;;;;;3.90;3.50;;;22.80;99.90;;;;;;5052552;28;20170;-71
2021/08/22 08:59:12;;;;;;;5.25;4.10;;;22.70;99.90;;;;;;5052674;28;20060;-71
2021/08/22 09:01:39;;;;;;;5.43;4.10;;;22.60;99.90;;;;;;5051996;28;20563;-70
2021/08/22 09:04:16;;;;;;;5.18;3.72;;;22.60;99.90;;;;;;5052392;28;20039;-71
2021/08/22 09:07:03;;;;;;;13.02;4.43;;;22.50;99.90;;;;;;5052501;28;20035;-71
2021/08/22 09:10:03;;;;;;;4.40;4.00;;;22.60;99.90;;;;;;5051487;28;20025;-70
2021/08/22 09:12:59;;;;;;;5.03;4.00;;;22.50;99.90;;;;;;5040926;28;20039;-65
2021/08/22 09:16:03;;;;;;;4.63;4.05;;;22.30;99.90;;;;;;5051173;28;20024;-65
2021/08/22 09:18:57;;;;;;;4.38;3.78;;;22.10;99.90;;;;;;5052499;28;20029;-64
2021/08/22 09:22:00;;;;;;;5.95;4.38;;;21.90;99.90;;;;;;5051151;28;20471;-64
2021/08/22 09:24:31;;;;;;;7.65;4.57;;;21.80;99.90;;;;;;5051529;28;20029;-65
2021/08/22 09:27:35;;;;;;;10.57;5.10;;;21.70;99.90;;;;;;5051832;28;20035;-64
2021/08/22 09:30:28;;;;;;;5.40;4.15;;;21.80;99.90;;;;;;5051976;28;20490;-64
2021/08/22 09:33:38;;;;;;;4.50;4.10;;;21.90;99.90;;;;;;5051967;28;20044;-65
2021/08/22 09:36:23;;;;;;;5.50;4.28;;;22.20;99.90;;;;;;5051895;28;20021;-65
2021/08/22 09:39:26;;;;;;;4.63;3.60;;;22.50;99.90;;;;;;5050922;28;20420;-65
2021/08/22 09:42:29;;;;;;;5.88;4.00;;;22.70;99.90;;;;;;5051921;28;20045;-65
2021/08/22 09:45:32;;;;;;;4.68;3.83;;;22.80;99.90;;;;;;5031975;28;20053;-65
2021/08/22 09:48:26;;;;;;;8.02;4.43;;;22.70;99.90;;;;;;5032108;28;20542;-65
2021/08/22 09:51:34;;;;;;;5.18;4.13;;;22.70;99.90;;;;;;5032170;28;20034;-65
2021/08/22 09:54:26;;;;;;;6.95;4.63;;;22.70;99.90;;;;;;5027174;28;20064;-65
2021/08/22 09:57:28;;;;;;;5.03;3.85;;;22.70;99.90;;;;;;5024746;28;20071;-65
2021/08/22 10:00:13;;;;;;;4.63;3.80;;;22.90;99.90;;;;;;5036196;28;20102;-65
2021/08/22 10:03:01;;;;;;;5.70;3.80;;;22.90;99.90;;;;;;5035168;28;20048;-65
2021/08/22 10:05:54;;;;;;;4.75;4.18;;;23.00;99.90;;;;;;5035283;28;20029;-65
2021/08/22 10:08:41;;;;;;;5.22;3.88;;;22.90;99.90;;;;;;5036196;28;20029;-65
2021/08/22 10:11:10;;;;;;;6.30;3.88;;;22.80;99.90;;;;;;5054593;28;20402;-65
2021/08/22 10:13:37;;;;;;;6.60;4.45;;;22.70;99.90;;;;;;5051451;28;20086;-64
2021/08/22 10:16:03;;;;;;;8.40;4.55;;;22.50;99.90;;;;;;5055712;28;20359;-65
2021/08/22 10:18:29;;;;;;;6.00;4.45;;;22.40;99.90;;;;;;5053918;28;20036;-64
2021/08/22 10:21:07;;;;;;;7.40;4.20;;;22.20;99.90;;;;;;5055229;28;20122;-64
2021/08/22 10:23:37;;;;;;;4.93;4.43;;;22.00;99.90;;;;;;5055198;28;20029;-64
2021/08/22 10:26:04;;;;;;;5.32;4.82;;;21.90;99.90;;;;;;5055807;28;20025;-64
2021/08/22 10:28:47;;;;;;;4.40;4.00;;;21.70;99.90;;;;;;5054567;28;20029;-64
2021/08/22 10:31:13;;;;;;;7.82;4.60;;;21.60;99.90;;;;;;5055520;28;20025;-64
2021/08/22 10:34:16;;;;;;;6.18;4.65;;;21.40;99.90;;;;;;5054961;28;20108;-65
2021/08/22 10:36:42;;;;;;;6.35;4.80;;;21.30;99.90;;;;;;5046980;28;20032;-65
2021/08/22 10:39:37;;;;;;;5.30;4.70;;;21.10;99.90;;;;;;5055370;28;20017;-64
2021/08/22 10:42:19;;;;;;;5.45;4.60;;;20.80;99.90;;;;;;5051417;28;20080;-65
2021/08/22 10:44:46;;;;;;;6.00;4.95;;;20.60;99.90;;;;;;5054107;28;20075;-65
2021/08/22 10:47:13;;;;;;;5.80;4.65;;;20.40;99.90;;;;;;5055134;28;20021;-65
2021/08/22 10:49:54;;;;;;;6.60;5.15;;;20.30;99.90;;;;;;5054158;28;20482;-65
2021/08/22 10:52:30;;;;;;;6.47;5.25;;;20.30;99.90;;;;;;5054827;28;20064;-66
2021/08/22 10:55:14;;;;;;;7.85;5.45;;;20.20;99.90;;;;;;5055318;28;20033;-65
2021/08/22 10:57:48;;;;;;;5.72;5.13;;;20.20;99.90;;;;;;5054151;28;20025;-66
2021/08/22 11:00:20;;;;;;;8.15;5.78;;;20.20;99.90;;;;;;5054999;28;20107;-66
2021/08/22 11:02:46;;;;;;;7.88;6.40;;;20.20;99.90;;;;;;5054142;28;20029;-65
2021/08/22 11:05:19;;;;;;;7.00;6.22;;;20.20;99.90;;;;;;5054985;28;20027;-66
2021/08/22 11:07:46;;;;;;;8.10;6.82;;;20.10;99.90;;;;;;5052940;28;20029;-66
2021/08/22 11:10:13;;;;;;;8.43;6.65;;;20.00;99.90;;;;;;5053677;28;20558;-66
2021/08/22 11:12:39;;;;;;;8.18;6.05;;;19.90;99.90;;;;;;5054175;28;20025;-66
2021/08/22 11:15:07;;;;;;;9.25;6.68;;;19.90;99.90;;;;;;5054375;28;20021;-68
2021/08/22 11:17:33;;;;;;;8.73;7.15;;;19.90;99.90;;;;;;5053792;28;20025;-67
2021/08/22 11:20:12;;;;;;;7.03;6.25;;;19.80;99.90;;;;;;5054459;28;20036;-67
2021/08/22 11:22:38;;;;;;;3.38;3.08;;;19.70;99.90;;;;;;5053775;28;20040;-68
2021/08/22 11:25:05;;;;;;;4.82;2.97;;;19.70;99.90;;;;;;5054580;28;20090;-66
2021/08/22 11:27:31;;;;;;;2.50;2.30;;;19.50;99.90;;;;;;5053600;28;20029;-67
2021/08/22 11:30:03;;;;;;;4.47;2.45;;;19.20;99.90;;;;;;5054465;28;20063;-67
2021/08/22 11:32:30;;;;;;;2.42;2.22;;;19.00;99.90;;;;;;5054186;28;20075;-67
2021/08/22 11:35:17;;;;;;;2.60;2.17;;;18.80;99.90;;;;;;5054359;28;20048;-67
2021/08/22 11:37:44;;;;;;;3.33;2.42;;;18.50;99.90;;;;;;5053767;28;20032;-66
2021/08/22 11:40:13;;;;;;;4.28;2.13;;;18.30;99.90;;;;;;5053940;28;20060;-68
2021/08/22 11:42:46;;;;;;;2.58;2.17;;;18.20;99.90;;;;;;5053691;28;20489;-67
2021/08/22 11:45:15;;;;;;;5.00;1.85;;;18.10;99.90;;;;;;5054228;28;20021;-67
2021/08/22 11:47:42;;;;;;;2.47;1.75;;;18.00;99.90;;;;;;5053745;28;20032;-67
2021/08/22 11:50:11;;;;;;;2.58;2.22;;;18.00;99.90;;;;;;5054150;28;20033;-67
2021/08/22 11:52:47;;;;;;;3.78;2.45;;;18.10;99.90;;;;;;5053501;28;20021;-66
2021/08/22 11:55:14;;;;;;;2.05;1.85;;;18.10;99.90;;;;;;5054173;28;20025;-67
2021/08/22 11:57:41;;;;;;;1.80;1.70;;;18.10;99.90;;;;;;5053531;28;20111;-66
2021/08/22 12:00:16;;;;;;;3.75;2.03;;;18.10;99.90;;;;;;5053670;28;20075;-66
2021/08/22 12:02:55;;;;;;;2.13;1.85;;;18.20;99.90;;;;;;5053443;28;20028;-66
2021/08/22 12:05:23;;;;;;;2.90;2.10;;;18.20;99.90;;;;;;5053836;28;20033;-67
2021/08/22 12:08:00;;;;;;;2.22;1.85;;;18.40;99.90;;;;;;5053639;28;20028;-67
2021/08/22 12:10:28;;;;;;;2.70;2.15;;;18.50;99.90;;;;;;5052842;28;20095;-67
2021/08/22 12:12:55;;;;;;;2.90;2.03;;;18.50;99.90;;;;;;5053559;28;20044;-67
2021/08/22 12:15:33;;;;;;;2.25;1.90;;;18.50;99.90;;;;;;5053275;28;20029;-66
2021/08/22 12:18:19;;;;;;;4.82;2.60;;;18.50;99.90;;;;;;5053459;28;20021;-67
2021/08/22 12:20:51;;;;;;;3.05;2.42;;;18.40;99.90;;;;;;5052045;28;20032;-67
2021/08/22 12:23:18;;;;;;;3.28;2.40;;;18.30;99.90;;;;;;5053640;28;20055;-67
2021/08/22 12:25:44;;;;;;;3.70;2.22;;;18.20;99.90;;;;;;5052539;28;20025;-67
2021/08/22 12:28:20;;;;;;;2.67;2.22;;;18.10;99.90;;;;;;5053350;28;20052;-67
2021/08/22 12:31:00;;;;;;;3.33;2.30;;;17.90;99.90;;;;;;5052597;28;20111;-67
2021/08/22 12:33:54;;;;;;;3.28;2.58;;;17.80;99.90;;;;;;5052575;28;20029;-67
2021/08/22 12:36:31;;;;;;;2.38;1.98;;;17.70;99.90;;;;;;5050742;28;20486;-67
2021/08/22 12:38:58;;;;;;;3.42;2.35;;;17.60;99.90;;;;;;5053213;28;20123;-67
2021/08/22 12:41:34;;;;;;;4.47;1.92;;;17.50;99.90;;;;;;5052249;28;20140;-67
2021/08/22 12:44:06;;;;;;;2.40;2.15;;;17.60;99.90;;;;;;5052837;28;20057;-67
2021/08/22 12:46:33;;;;;;;2.67;2.00;;;17.60;99.90;;;;;;5052158;28;20075;-66
2021/08/22 12:48:59;;;;;;;2.22;2.03;;;17.80;99.90;;;;;;5053305;28;20036;-67
2021/08/22 12:51:26;;;;;;;3.20;1.80;;;17.70;99.90;;;;;;5053079;28;20037;-67
2021/08/22 12:53:53;;;;;;;3.15;2.08;;;17.60;99.90;;;;;;5051175;28;20037;-67
2021/08/22 12:56:21;;;;;;;2.10;1.90;;;17.70;99.90;;;;;;5052720;28;20031;-67
2021/08/22 12:58:46;;;;;;;3.22;2.33;;;17.70;99.90;;;;;;5052285;28;20040;-67
2021/08/22 13:01:12;;;;;;;1.92;1.83;;;17.80;99.90;;;;;;5052577;28;20399;-67
2021/08/22 13:03:38;;;;;;;2.90;1.98;;;18.00;99.90;;;;;;5052087;28;20079;-67
2021/08/22 13:06:03;;;;;;;2.95;2.55;;;18.20;99.90;;;;;;5052515;28;20024;-67
2021/08/22 13:08:30;;;;;;;2.75;2.35;;;18.30;99.90;;;;;;5051761;28;20037;-67
2021/08/22 13:10:56;;;;;;;3.58;2.13;;;18.40;99.90;;;;;;5052447;28;20429;-66
2021/08/22 13:13:22;;;;;;;3.75;2.15;;;18.50;99.90;;;;;;5053083;28;20029;-67
2021/08/22 13:15:47;;;;;;;2.63;2.40;;;18.50;99.90;;;;;;5052259;28;20033;-66